sensor_id;sensor_type;location;lat;lon;timestamp;P1;durP1;ratioP1;P2;durP2;ratioP2
55364;SDS011;41245;45.384;20.390;2024-03-06T00:02:11;50.33;;;21.60;;
55364;SDS011;41245;45.384;20.390;2024-03-06T00:04:38;39.90;;;22.98;;
55364;SDS011;41245;45.384;20.390;2024-03-06T00:07:04;43.85;;;23.17;;
55364;SDS011;41245;45.384;20.390;2024-03-06T00:09:30;44.97;;;23.58;;
55364;SDS011;41245;45.384;20.390;2024-03-06T00:11:57;44.03;;;22.85;;
55364;SDS011;41245;45.384;20.390;2024-03-06T00:14:23;43.22;;;22.73;;
55364;SDS011;41245;45.384;20.390;2024-03-06T00:16:49;42.83;;;22.65;;
55364;SDS011;41245;45.384;20.390;2024-03-06T00:19:18;42.65;;;22.30;;
55364;SDS011;41245;45.384;20.390;2024-03-06T00:21:45;43.35;;;24.35;;
55364;SDS011;41245;45.384;20.390;2024-03-06T00:24:12;51.88;;;25.33;;
55364;SDS011;41245;45.384;20.390;2024-03-06T00:26:44;48.70;;;25.17;;
55364;SDS011;41245;45.384;20.390;2024-03-06T00:29:12;42.00;;;23.63;;
55364;SDS011;41245;45.384;20.390;2024-03-06T00:31:44;46.67;;;25.33;;
55364;SDS011;41245;45.384;20.390;2024-03-06T00:34:11;43.90;;;24.85;;
55364;SDS011;41245;45.384;20.390;2024-03-06T00:36:40;43.78;;;25.27;;
55364;SDS011;41245;45.384;20.390;2024-03-06T00:39:06;46.28;;;24.45;;
55364;SDS011;41245;45.384;20.390;2024-03-06T00:41:33;43.90;;;25.95;;
55364;SDS011;41245;45.384;20.390;2024-03-06T00:43:59;41.45;;;24.67;;
55364;SDS011;41245;45.384;20.390;2024-03-06T00:46:25;44.35;;;24.55;;
55364;SDS011;41245;45.384;20.390;2024-03-06T00:48:51;47.75;;;25.55;;
55364;SDS011;41245;45.384;20.390;2024-03-06T00:51:18;45.47;;;26.20;;
55364;SDS011;41245;45.384;20.390;2024-03-06T00:53:44;43.47;;;25.98;;
55364;SDS011;41245;45.384;20.390;2024-03-06T00:56:10;49.03;;;26.33;;
55364;SDS011;41245;45.384;20.390;2024-03-06T00:58:36;41.85;;;25.33;;
55364;SDS011;41245;45.384;20.390;2024-03-06T01:01:02;53.25;;;25.25;;
55364;SDS011;41245;45.384;20.390;2024-03-06T01:03:29;40.22;;;25.20;;
55364;SDS011;41245;45.384;20.390;2024-03-06T01:05:55;46.47;;;25.02;;
55364;SDS011;41245;45.384;20.390;2024-03-06T01:08:22;48.13;;;23.92;;
55364;SDS011;41245;45.384;20.390;2024-03-06T01:10:52;47.58;;;25.73;;
55364;SDS011;41245;45.384;20.390;2024-03-06T01:13:19;40.88;;;24.35;;
55364;SDS011;41245;45.384;20.390;2024-03-06T01:15:45;53.53;;;25.08;;
55364;SDS011;41245;45.384;20.390;2024-03-06T01:18:11;50.25;;;27.42;;
55364;SDS011;41245;45.384;20.390;2024-03-06T01:20:37;52.90;;;25.60;;
55364;SDS011;41245;45.384;20.390;2024-03-06T01:23:04;49.08;;;26.98;;
55364;SDS011;41245;45.384;20.390;2024-03-06T01:25:30;55.72;;;27.25;;
55364;SDS011;41245;45.384;20.390;2024-03-06T01:27:56;48.15;;;27.95;;
55364;SDS011;41245;45.384;20.390;2024-03-06T01:30:22;48.60;;;27.33;;
55364;SDS011;41245;45.384;20.390;2024-03-06T01:32:48;52.88;;;28.70;;
55364;SDS011;41245;45.384;20.390;2024-03-06T01:35:14;43.92;;;27.10;;
55364;SDS011;41245;45.384;20.390;2024-03-06T01:37:40;50.88;;;25.65;;
55364;SDS011;41245;45.384;20.390;2024-03-06T01:40:06;54.10;;;29.52;;
55364;SDS011;41245;45.384;20.390;2024-03-06T01:42:34;49.53;;;26.50;;
55364;SDS011;41245;45.384;20.390;2024-03-06T01:45:01;51.58;;;26.23;;
55364;SDS011;41245;45.384;20.390;2024-03-06T01:47:27;45.25;;;25.88;;
55364;SDS011;41245;45.384;20.390;2024-03-06T01:49:53;47.83;;;27.08;;
55364;SDS011;41245;45.384;20.390;2024-03-06T01:52:19;45.85;;;26.52;;
55364;SDS011;41245;45.384;20.390;2024-03-06T01:54:46;46.97;;;26.45;;
55364;SDS011;41245;45.384;20.390;2024-03-06T01:57:14;47.22;;;26.58;;
55364;SDS011;41245;45.384;20.390;2024-03-06T01:59:41;53.28;;;27.80;;
55364;SDS011;41245;45.384;20.390;2024-03-06T02:02:07;53.10;;;28.30;;
55364;SDS011;41245;45.384;20.390;2024-03-06T02:04:36;49.30;;;30.60;;
55364;SDS011;41245;45.384;20.390;2024-03-06T02:07:02;51.90;;;28.75;;
55364;SDS011;41245;45.384;20.390;2024-03-06T02:09:28;57.05;;;28.98;;
55364;SDS011;41245;45.384;20.390;2024-03-06T02:11:54;54.28;;;31.08;;
55364;SDS011;41245;45.384;20.390;2024-03-06T02:14:20;55.92;;;29.08;;
55364;SDS011;41245;45.384;20.390;2024-03-06T02:16:46;48.38;;;27.17;;
55364;SDS011;41245;45.384;20.390;2024-03-06T02:19:12;56.47;;;30.13;;
55364;SDS011;41245;45.384;20.390;2024-03-06T02:21:39;51.28;;;27.88;;
55364;SDS011;41245;45.384;20.390;2024-03-06T02:24:05;52.22;;;30.10;;
55364;SDS011;41245;45.384;20.390;2024-03-06T02:26:33;47.72;;;28.00;;
55364;SDS011;41245;45.384;20.390;2024-03-06T02:29:00;47.78;;;27.05;;
55364;SDS011;41245;45.384;20.390;2024-03-06T02:31:26;51.08;;;27.77;;
55364;SDS011;41245;45.384;20.390;2024-03-06T02:33:52;52.15;;;28.80;;
55364;SDS011;41245;45.384;20.390;2024-03-06T02:36:18;58.30;;;30.42;;
55364;SDS011;41245;45.384;20.390;2024-03-06T02:38:45;56.03;;;32.33;;
55364;SDS011;41245;45.384;20.390;2024-03-06T02:41:11;53.28;;;32.58;;
55364;SDS011;41245;45.384;20.390;2024-03-06T02:43:40;65.90;;;35.67;;
55364;SDS011;41245;45.384;20.390;2024-03-06T02:46:07;60.85;;;34.17;;
55364;SDS011;41245;45.384;20.390;2024-03-06T02:48:33;60.50;;;34.42;;
55364;SDS011;41245;45.384;20.390;2024-03-06T02:50:59;53.75;;;31.15;;
55364;SDS011;41245;45.384;20.390;2024-03-06T02:53:25;62.58;;;33.13;;
55364;SDS011;41245;45.384;20.390;2024-03-06T02:55:52;56.72;;;30.88;;
55364;SDS011;41245;45.384;20.390;2024-03-06T02:58:18;56.35;;;32.28;;
55364;SDS011;41245;45.384;20.390;2024-03-06T03:00:45;53.33;;;30.15;;
55364;SDS011;41245;45.384;20.390;2024-03-06T03:03:11;65.60;;;33.72;;
55364;SDS011;41245;45.384;20.390;2024-03-06T03:05:37;61.15;;;33.45;;
55364;SDS011;41245;45.384;20.390;2024-03-06T03:08:04;61.38;;;31.98;;
55364;SDS011;41245;45.384;20.390;2024-03-06T03:10:30;63.47;;;32.85;;
55364;SDS011;41245;45.384;20.390;2024-03-06T03:12:56;60.63;;;33.38;;
55364;SDS011;41245;45.384;20.390;2024-03-06T03:15:22;62.97;;;32.25;;
55364;SDS011;41245;45.384;20.390;2024-03-06T03:17:48;64.65;;;34.50;;
55364;SDS011;41245;45.384;20.390;2024-03-06T03:20:14;60.50;;;32.83;;
55364;SDS011;41245;45.384;20.390;2024-03-06T03:22:42;64.55;;;32.92;;
55364;SDS011;41245;45.384;20.390;2024-03-06T03:25:09;62.38;;;33.60;;
55364;SDS011;41245;45.384;20.390;2024-03-06T03:27:38;63.03;;;33.80;;
55364;SDS011;41245;45.384;20.390;2024-03-06T03:30:11;57.25;;;32.97;;
55364;SDS011;41245;45.384;20.390;2024-03-06T03:32:37;59.70;;;32.75;;
55364;SDS011;41245;45.384;20.390;2024-03-06T03:35:07;57.30;;;32.60;;
55364;SDS011;41245;45.384;20.390;2024-03-06T03:37:33;60.15;;;32.67;;
55364;SDS011;41245;45.384;20.390;2024-03-06T03:39:59;65.15;;;34.30;;
55364;SDS011;41245;45.384;20.390;2024-03-06T03:42:26;57.83;;;32.72;;
55364;SDS011;41245;45.384;20.390;2024-03-06T03:44:52;62.55;;;33.15;;
55364;SDS011;41245;45.384;20.390;2024-03-06T03:47:18;62.53;;;32.30;;
55364;SDS011;41245;45.384;20.390;2024-03-06T03:49:44;60.30;;;32.30;;
55364;SDS011;41245;45.384;20.390;2024-03-06T03:52:10;61.00;;;33.75;;
55364;SDS011;41245;45.384;20.390;2024-03-06T03:54:37;62.10;;;32.13;;
55364;SDS011;41245;45.384;20.390;2024-03-06T03:57:03;64.35;;;32.85;;
55364;SDS011;41245;45.384;20.390;2024-03-06T03:59:29;59.58;;;33.72;;
55364;SDS011;41245;45.384;20.390;2024-03-06T04:01:55;58.88;;;31.17;;
55364;SDS011;41245;45.384;20.390;2024-03-06T04:04:22;59.80;;;31.83;;
55364;SDS011;41245;45.384;20.390;2024-03-06T04:06:48;62.92;;;34.28;;
55364;SDS011;41245;45.384;20.390;2024-03-06T04:09:14;55.92;;;31.88;;
55364;SDS011;41245;45.384;20.390;2024-03-06T04:11:40;64.68;;;33.17;;
55364;SDS011;41245;45.384;20.390;2024-03-06T04:14:06;60.25;;;32.83;;
55364;SDS011;41245;45.384;20.390;2024-03-06T04:16:33;57.33;;;32.28;;
55364;SDS011;41245;45.384;20.390;2024-03-06T04:18:59;62.85;;;33.63;;
55364;SDS011;41245;45.384;20.390;2024-03-06T04:21:25;61.78;;;33.03;;
55364;SDS011;41245;45.384;20.390;2024-03-06T04:23:52;56.72;;;31.13;;
55364;SDS011;41245;45.384;20.390;2024-03-06T04:26:18;60.25;;;32.90;;
55364;SDS011;41245;45.384;20.390;2024-03-06T04:28:44;67.75;;;33.53;;
55364;SDS011;41245;45.384;20.390;2024-03-06T04:31:10;65.65;;;35.25;;
55364;SDS011;41245;45.384;20.390;2024-03-06T04:33:36;66.70;;;35.00;;
55364;SDS011;41245;45.384;20.390;2024-03-06T04:36:03;64.95;;;33.47;;
55364;SDS011;41245;45.384;20.390;2024-03-06T04:38:32;66.82;;;35.53;;
55364;SDS011;41245;45.384;20.390;2024-03-06T04:40:58;63.10;;;33.70;;
55364;SDS011;41245;45.384;20.390;2024-03-06T04:43:24;64.20;;;32.15;;
55364;SDS011;41245;45.384;20.390;2024-03-06T04:45:50;71.20;;;34.03;;
55364;SDS011;41245;45.384;20.390;2024-03-06T04:48:16;60.85;;;32.95;;
55364;SDS011;41245;45.384;20.390;2024-03-06T04:50:43;68.10;;;35.85;;
55364;SDS011;41245;45.384;20.390;2024-03-06T04:53:09;66.85;;;35.53;;
55364;SDS011;41245;45.384;20.390;2024-03-06T04:55:36;63.55;;;34.75;;
55364;SDS011;41245;45.384;20.390;2024-03-06T04:58:02;66.53;;;36.42;;
55364;SDS011;41245;45.384;20.390;2024-03-06T05:00:28;63.42;;;33.13;;
55364;SDS011;41245;45.384;20.390;2024-03-06T05:02:54;58.47;;;33.17;;
55364;SDS011;41245;45.384;20.390;2024-03-06T05:05:21;70.75;;;34.53;;
55364;SDS011;41245;45.384;20.390;2024-03-06T05:07:47;64.85;;;34.08;;
55364;SDS011;41245;45.384;20.390;2024-03-06T05:10:14;69.25;;;35.97;;
55364;SDS011;41245;45.384;20.390;2024-03-06T05:12:41;70.43;;;35.90;;
55364;SDS011;41245;45.384;20.390;2024-03-06T05:15:07;66.45;;;34.20;;
55364;SDS011;41245;45.384;20.390;2024-03-06T05:17:33;65.13;;;34.38;;
55364;SDS011;41245;45.384;20.390;2024-03-06T05:19:59;67.15;;;35.53;;
55364;SDS011;41245;45.384;20.390;2024-03-06T05:22:25;64.60;;;34.90;;
55364;SDS011;41245;45.384;20.390;2024-03-06T05:24:52;65.53;;;33.60;;
55364;SDS011;41245;45.384;20.390;2024-03-06T05:27:19;60.38;;;31.67;;
55364;SDS011;41245;45.384;20.390;2024-03-06T05:29:45;66.90;;;32.95;;
55364;SDS011;41245;45.384;20.390;2024-03-06T05:32:11;63.15;;;34.22;;
55364;SDS011;41245;45.384;20.390;2024-03-06T05:34:37;65.55;;;36.03;;
55364;SDS011;41245;45.384;20.390;2024-03-06T05:37:03;73.38;;;35.70;;
55364;SDS011;41245;45.384;20.390;2024-03-06T05:39:30;68.18;;;34.75;;
55364;SDS011;41245;45.384;20.390;2024-03-06T05:41:59;69.43;;;35.38;;
55364;SDS011;41245;45.384;20.390;2024-03-06T05:44:27;74.20;;;36.83;;
55364;SDS011;41245;45.384;20.390;2024-03-06T05:46:53;69.43;;;35.00;;
55364;SDS011;41245;45.384;20.390;2024-03-06T05:49:19;70.30;;;36.05;;
55364;SDS011;41245;45.384;20.390;2024-03-06T05:51:45;66.15;;;33.53;;
55364;SDS011;41245;45.384;20.390;2024-03-06T05:54:12;66.00;;;35.05;;
55364;SDS011;41245;45.384;20.390;2024-03-06T05:56:38;70.57;;;35.33;;
55364;SDS011;41245;45.384;20.390;2024-03-06T05:59:04;63.45;;;33.95;;
55364;SDS011;41245;45.384;20.390;2024-03-06T06:01:33;69.50;;;33.22;;
55364;SDS011;41245;45.384;20.390;2024-03-06T06:04:00;66.68;;;33.13;;
55364;SDS011;41245;45.384;20.390;2024-03-06T06:06:26;67.32;;;34.17;;
55364;SDS011;41245;45.384;20.390;2024-03-06T06:08:52;70.18;;;37.30;;
55364;SDS011;41245;45.384;20.390;2024-03-06T06:11:19;62.05;;;34.83;;
55364;SDS011;41245;45.384;20.390;2024-03-06T06:13:45;64.97;;;34.67;;
55364;SDS011;41245;45.384;20.390;2024-03-06T06:16:11;61.88;;;34.25;;
55364;SDS011;41245;45.384;20.390;2024-03-06T06:18:39;70.10;;;34.90;;
55364;SDS011;41245;45.384;20.390;2024-03-06T06:21:07;67.73;;;33.57;;
55364;SDS011;41245;45.384;20.390;2024-03-06T06:23:33;68.72;;;34.22;;
55364;SDS011;41245;45.384;20.390;2024-03-06T06:25:59;62.58;;;33.15;;
55364;SDS011;41245;45.384;20.390;2024-03-06T06:28:25;68.80;;;33.70;;
55364;SDS011;41245;45.384;20.390;2024-03-06T06:30:51;61.53;;;34.17;;
55364;SDS011;41245;45.384;20.390;2024-03-06T06:33:21;64.78;;;32.80;;
55364;SDS011;41245;45.384;20.390;2024-03-06T06:35:47;66.28;;;33.40;;
55364;SDS011;41245;45.384;20.390;2024-03-06T06:38:13;64.18;;;33.15;;
55364;SDS011;41245;45.384;20.390;2024-03-06T06:40:39;61.75;;;34.30;;
55364;SDS011;41245;45.384;20.390;2024-03-06T06:43:08;81.68;;;41.65;;
55364;SDS011;41245;45.384;20.390;2024-03-06T06:45:34;95.05;;;47.55;;
55364;SDS011;41245;45.384;20.390;2024-03-06T06:48:00;68.75;;;37.17;;
55364;SDS011;41245;45.384;20.390;2024-03-06T06:50:26;66.63;;;35.95;;
55364;SDS011;41245;45.384;20.390;2024-03-06T06:52:52;84.50;;;44.28;;
55364;SDS011;41245;45.384;20.390;2024-03-06T06:55:18;68.60;;;36.70;;
55364;SDS011;41245;45.384;20.390;2024-03-06T06:57:47;67.73;;;35.63;;
55364;SDS011;41245;45.384;20.390;2024-03-06T07:00:14;62.08;;;33.42;;
55364;SDS011;41245;45.384;20.390;2024-03-06T07:02:43;65.93;;;35.83;;
55364;SDS011;41245;45.384;20.390;2024-03-06T07:05:10;67.78;;;35.33;;
55364;SDS011;41245;45.384;20.390;2024-03-06T07:07:36;65.00;;;34.00;;
55364;SDS011;41245;45.384;20.390;2024-03-06T07:10:03;55.90;;;33.97;;
55364;SDS011;41245;45.384;20.390;2024-03-06T07:12:29;55.80;;;33.40;;
55364;SDS011;41245;45.384;20.390;2024-03-06T07:14:56;58.97;;;32.88;;
55364;SDS011;41245;45.384;20.390;2024-03-06T07:17:22;60.50;;;30.83;;
55364;SDS011;41245;45.384;20.390;2024-03-06T07:19:48;60.70;;;33.70;;
55364;SDS011;41245;45.384;20.390;2024-03-06T07:22:15;66.28;;;32.63;;
55364;SDS011;41245;45.384;20.390;2024-03-06T07:24:41;62.13;;;33.67;;
55364;SDS011;41245;45.384;20.390;2024-03-06T07:27:07;61.55;;;32.40;;
55364;SDS011;41245;45.384;20.390;2024-03-06T07:29:37;62.83;;;33.03;;
55364;SDS011;41245;45.384;20.390;2024-03-06T07:32:03;68.30;;;33.67;;
55364;SDS011;41245;45.384;20.390;2024-03-06T07:34:32;59.10;;;33.05;;
55364;SDS011;41245;45.384;20.390;2024-03-06T07:36:59;66.80;;;33.03;;
55364;SDS011;41245;45.384;20.390;2024-03-06T07:39:25;65.57;;;34.03;;
55364;SDS011;41245;45.384;20.390;2024-03-06T07:41:51;54.45;;;33.15;;
55364;SDS011;41245;45.384;20.390;2024-03-06T07:44:18;64.13;;;33.70;;
55364;SDS011;41245;45.384;20.390;2024-03-06T07:46:45;54.03;;;31.85;;
55364;SDS011;41245;45.384;20.390;2024-03-06T07:49:11;55.17;;;32.50;;
55364;SDS011;41245;45.384;20.390;2024-03-06T07:51:37;60.55;;;32.13;;
55364;SDS011;41245;45.384;20.390;2024-03-06T07:54:03;61.70;;;34.08;;
55364;SDS011;41245;45.384;20.390;2024-03-06T07:56:29;68.18;;;35.42;;
55364;SDS011;41245;45.384;20.390;2024-03-06T07:58:55;61.70;;;33.08;;
55364;SDS011;41245;45.384;20.390;2024-03-06T08:01:22;58.50;;;34.75;;
55364;SDS011;41245;45.384;20.390;2024-03-06T08:03:48;61.80;;;32.47;;
55364;SDS011;41245;45.384;20.390;2024-03-06T08:06:14;56.08;;;31.98;;
55364;SDS011;41245;45.384;20.390;2024-03-06T08:08:41;60.25;;;33.45;;
55364;SDS011;41245;45.384;20.390;2024-03-06T08:11:09;54.40;;;32.05;;
55364;SDS011;41245;45.384;20.390;2024-03-06T08:13:36;61.38;;;34.00;;
55364;SDS011;41245;45.384;20.390;2024-03-06T08:16:02;67.97;;;32.85;;
55364;SDS011;41245;45.384;20.390;2024-03-06T08:18:29;59.63;;;32.40;;
55364;SDS011;41245;45.384;20.390;2024-03-06T08:20:55;52.85;;;31.88;;
55364;SDS011;41245;45.384;20.390;2024-03-06T08:23:22;56.97;;;33.55;;
55364;SDS011;41245;45.384;20.390;2024-03-06T08:25:48;56.10;;;32.33;;
55364;SDS011;41245;45.384;20.390;2024-03-06T08:28:15;59.25;;;31.85;;
55364;SDS011;41245;45.384;20.390;2024-03-06T08:30:41;55.50;;;32.42;;
55364;SDS011;41245;45.384;20.390;2024-03-06T08:33:07;54.45;;;33.47;;
55364;SDS011;41245;45.384;20.390;2024-03-06T08:35:33;52.15;;;30.80;;
55364;SDS011;41245;45.384;20.390;2024-03-06T08:37:59;51.78;;;31.20;;
55364;SDS011;41245;45.384;20.390;2024-03-06T08:40:26;53.72;;;31.02;;
55364;SDS011;41245;45.384;20.390;2024-03-06T08:42:52;48.47;;;30.98;;
55364;SDS011;41245;45.384;20.390;2024-03-06T08:45:18;54.05;;;31.60;;
55364;SDS011;41245;45.384;20.390;2024-03-06T08:47:45;69.72;;;34.55;;
55364;SDS011;41245;45.384;20.390;2024-03-06T08:50:12;51.13;;;31.38;;
55364;SDS011;41245;45.384;20.390;2024-03-06T08:52:38;53.92;;;31.83;;
55364;SDS011;41245;45.384;20.390;2024-03-06T08:55:06;59.70;;;32.70;;
55364;SDS011;41245;45.384;20.390;2024-03-06T08:57:32;52.13;;;31.90;;
55364;SDS011;41245;45.384;20.390;2024-03-06T08:59:58;50.08;;;32.22;;
55364;SDS011;41245;45.384;20.390;2024-03-06T09:02:24;43.47;;;28.80;;
55364;SDS011;41245;45.384;20.390;2024-03-06T09:04:51;52.25;;;30.98;;
55364;SDS011;41245;45.384;20.390;2024-03-06T09:07:17;53.35;;;31.13;;
55364;SDS011;41245;45.384;20.390;2024-03-06T09:09:44;53.72;;;31.60;;
55364;SDS011;41245;45.384;20.390;2024-03-06T09:12:10;47.70;;;29.88;;
55364;SDS011;41245;45.384;20.390;2024-03-06T09:14:39;48.35;;;28.85;;
55364;SDS011;41245;45.384;20.390;2024-03-06T09:17:06;46.85;;;28.17;;
55364;SDS011;41245;45.384;20.390;2024-03-06T09:19:35;50.13;;;29.38;;
55364;SDS011;41245;45.384;20.390;2024-03-06T09:22:01;48.17;;;29.58;;
55364;SDS011;41245;45.384;20.390;2024-03-06T09:24:29;50.35;;;28.40;;
55364;SDS011;41245;45.384;20.390;2024-03-06T09:26:55;52.22;;;30.35;;
55364;SDS011;41245;45.384;20.390;2024-03-06T09:29:21;45.38;;;28.05;;
55364;SDS011;41245;45.384;20.390;2024-03-06T09:31:47;50.25;;;30.00;;
55364;SDS011;41245;45.384;20.390;2024-03-06T09:34:14;45.03;;;29.08;;
55364;SDS011;41245;45.384;20.390;2024-03-06T09:36:40;48.13;;;29.80;;
55364;SDS011;41245;45.384;20.390;2024-03-06T09:39:10;47.08;;;28.65;;
55364;SDS011;41245;45.384;20.390;2024-03-06T09:41:36;44.45;;;27.77;;
55364;SDS011;41245;45.384;20.390;2024-03-06T09:44:04;46.50;;;29.88;;
55364;SDS011;41245;45.384;20.390;2024-03-06T09:46:32;49.95;;;29.08;;
55364;SDS011;41245;45.384;20.390;2024-03-06T09:48:59;50.53;;;31.20;;
55364;SDS011;41245;45.384;20.390;2024-03-06T09:51:26;45.10;;;28.73;;
55364;SDS011;41245;45.384;20.390;2024-03-06T09:53:52;50.63;;;30.38;;
55364;SDS011;41245;45.384;20.390;2024-03-06T09:56:19;49.97;;;30.90;;
55364;SDS011;41245;45.384;20.390;2024-03-06T09:58:45;49.97;;;30.55;;
55364;SDS011;41245;45.384;20.390;2024-03-06T10:01:12;48.03;;;29.67;;
55364;SDS011;41245;45.384;20.390;2024-03-06T10:03:39;48.72;;;30.67;;
55364;SDS011;41245;45.384;20.390;2024-03-06T10:06:08;42.17;;;29.42;;
55364;SDS011;41245;45.384;20.390;2024-03-06T10:08:35;49.80;;;31.98;;
55364;SDS011;41245;45.384;20.390;2024-03-06T10:11:02;51.47;;;31.65;;
55364;SDS011;41245;45.384;20.390;2024-03-06T10:13:29;59.42;;;35.22;;
55364;SDS011;41245;45.384;20.390;2024-03-06T10:15:59;48.22;;;28.48;;
55364;SDS011;41245;45.384;20.390;2024-03-06T10:18:29;47.63;;;28.80;;
55364;SDS011;41245;45.384;20.390;2024-03-06T10:20:55;40.80;;;28.20;;
55364;SDS011;41245;45.384;20.390;2024-03-06T10:23:22;45.55;;;27.75;;
55364;SDS011;41245;45.384;20.390;2024-03-06T10:25:48;48.90;;;28.65;;
55364;SDS011;41245;45.384;20.390;2024-03-06T10:30:44;51.13;;;27.92;;
55364;SDS011;41245;45.384;20.390;2024-03-06T10:33:11;47.72;;;30.83;;
55364;SDS011;41245;45.384;20.390;2024-03-06T10:35:39;43.20;;;28.25;;
55364;SDS011;41245;45.384;20.390;2024-03-06T10:38:05;41.45;;;27.27;;
55364;SDS011;41245;45.384;20.390;2024-03-06T10:40:34;36.97;;;24.73;;
55364;SDS011;41245;45.384;20.390;2024-03-06T10:43:01;40.75;;;26.00;;
55364;SDS011;41245;45.384;20.390;2024-03-06T10:45:49;38.35;;;25.25;;
55364;SDS011;41245;45.384;20.390;2024-03-06T10:48:14;36.30;;;22.90;;
55364;SDS011;41245;45.384;20.390;2024-03-06T10:50:41;34.35;;;23.63;;
55364;SDS011;41245;45.384;20.390;2024-03-06T10:53:09;42.40;;;25.52;;
55364;SDS011;41245;45.384;20.390;2024-03-06T10:55:36;35.05;;;21.60;;
55364;SDS011;41245;45.384;20.390;2024-03-06T10:58:04;35.33;;;22.85;;
55364;SDS011;41245;45.384;20.390;2024-03-06T11:00:33;38.33;;;22.98;;
55364;SDS011;41245;45.384;20.390;2024-03-06T11:03:00;40.20;;;24.02;;
55364;SDS011;41245;45.384;20.390;2024-03-06T11:05:47;37.40;;;23.98;;
55364;SDS011;41245;45.384;20.390;2024-03-06T11:08:15;33.65;;;22.80;;
55364;SDS011;41245;45.384;20.390;2024-03-06T11:10:42;36.42;;;23.13;;
55364;SDS011;41245;45.384;20.390;2024-03-06T11:13:09;36.92;;;22.77;;
55364;SDS011;41245;45.384;20.390;2024-03-06T11:15:49;32.92;;;20.50;;
55364;SDS011;41245;45.384;20.390;2024-03-06T11:23:32;31.20;;;19.85;;
55364;SDS011;41245;45.384;20.390;2024-03-06T11:26:05;31.50;;;19.83;;
55364;SDS011;41245;45.384;20.390;2024-03-06T11:28:35;29.20;;;18.02;;
55364;SDS011;41245;45.384;20.390;2024-03-06T11:33:34;37.43;;;19.40;;
55364;SDS011;41245;45.384;20.390;2024-03-06T11:36:35;32.45;;;20.02;;
55364;SDS011;41245;45.384;20.390;2024-03-06T11:39:04;30.33;;;20.13;;
55364;SDS011;41245;45.384;20.390;2024-03-06T11:44:12;28.35;;;17.25;;
55364;SDS011;41245;45.384;20.390;2024-03-06T11:49:20;31.20;;;21.02;;
55364;SDS011;41245;45.384;20.390;2024-03-06T11:51:49;28.93;;;18.97;;
55364;SDS011;41245;45.384;20.390;2024-03-06T11:54:16;28.45;;;18.88;;
55364;SDS011;41245;45.384;20.390;2024-03-06T11:56:48;30.73;;;20.20;;
55364;SDS011;41245;45.384;20.390;2024-03-06T11:59:15;28.23;;;19.35;;
55364;SDS011;41245;45.384;20.390;2024-03-06T12:01:41;38.30;;;20.13;;
55364;SDS011;41245;45.384;20.390;2024-03-06T12:04:07;33.17;;;19.83;;
55364;SDS011;41245;45.384;20.390;2024-03-06T12:06:35;31.95;;;21.05;;
55364;SDS011;41245;45.384;20.390;2024-03-06T12:09:02;33.45;;;18.92;;
55364;SDS011;41245;45.384;20.390;2024-03-06T12:11:28;32.22;;;19.55;;
55364;SDS011;41245;45.384;20.390;2024-03-06T12:13:56;27.67;;;18.77;;
55364;SDS011;41245;45.384;20.390;2024-03-06T12:16:22;31.65;;;19.70;;
55364;SDS011;41245;45.384;20.390;2024-03-06T12:18:55;31.70;;;19.25;;
55364;SDS011;41245;45.384;20.390;2024-03-06T12:21:33;31.48;;;18.25;;
55364;SDS011;41245;45.384;20.390;2024-03-06T12:24:06;22.52;;;16.02;;
55364;SDS011;41245;45.384;20.390;2024-03-06T12:26:33;20.23;;;14.73;;
55364;SDS011;41245;45.384;20.390;2024-03-06T12:31:31;27.15;;;18.40;;
55364;SDS011;41245;45.384;20.390;2024-03-06T12:33:58;31.25;;;17.65;;
55364;SDS011;41245;45.384;20.390;2024-03-06T12:36:25;24.58;;;17.15;;
55364;SDS011;41245;45.384;20.390;2024-03-06T12:38:54;32.28;;;18.25;;
55364;SDS011;41245;45.384;20.390;2024-03-06T12:41:20;25.08;;;17.13;;
55364;SDS011;41245;45.384;20.390;2024-03-06T12:43:46;29.55;;;18.00;;
55364;SDS011;41245;45.384;20.390;2024-03-06T12:46:13;28.00;;;17.77;;
55364;SDS011;41245;45.384;20.390;2024-03-06T12:48:39;29.52;;;17.55;;
55364;SDS011;41245;45.384;20.390;2024-03-06T12:51:05;30.02;;;18.65;;
55364;SDS011;41245;45.384;20.390;2024-03-06T12:53:31;37.33;;;19.38;;
55364;SDS011;41245;45.384;20.390;2024-03-06T12:56:00;31.58;;;19.38;;
55364;SDS011;41245;45.384;20.390;2024-03-06T12:58:26;25.20;;;17.15;;
55364;SDS011;41245;45.384;20.390;2024-03-06T13:00:52;24.98;;;16.50;;
55364;SDS011;41245;45.384;20.390;2024-03-06T13:03:19;31.33;;;17.85;;
55364;SDS011;41245;45.384;20.390;2024-03-06T13:05:45;25.23;;;16.13;;
55364;SDS011;41245;45.384;20.390;2024-03-06T13:08:12;26.30;;;16.45;;
55364;SDS011;41245;45.384;20.390;2024-03-06T13:10:39;26.95;;;17.13;;
55364;SDS011;41245;45.384;20.390;2024-03-06T13:13:07;36.53;;;16.73;;
55364;SDS011;41245;45.384;20.390;2024-03-06T13:15:33;29.08;;;16.40;;
55364;SDS011;41245;45.384;20.390;2024-03-06T13:17:59;28.63;;;17.88;;
55364;SDS011;41245;45.384;20.390;2024-03-06T13:20:37;32.50;;;17.02;;
55364;SDS011;41245;45.384;20.390;2024-03-06T13:23:04;21.88;;;15.88;;
55364;SDS011;41245;45.384;20.390;2024-03-06T13:25:31;25.60;;;15.95;;
55364;SDS011;41245;45.384;20.390;2024-03-06T13:27:57;24.65;;;17.27;;
55364;SDS011;41245;45.384;20.390;2024-03-06T13:30:24;27.27;;;15.88;;
55364;SDS011;41245;45.384;20.390;2024-03-06T13:32:51;27.75;;;18.20;;
55364;SDS011;41245;45.384;20.390;2024-03-06T13:35:17;29.02;;;18.85;;
55364;SDS011;41245;45.384;20.390;2024-03-06T13:37:43;31.10;;;17.17;;
55364;SDS011;41245;45.384;20.390;2024-03-06T13:40:09;23.08;;;16.75;;
55364;SDS011;41245;45.384;20.390;2024-03-06T13:42:38;25.50;;;16.55;;
55364;SDS011;41245;45.384;20.390;2024-03-06T13:45:04;26.67;;;16.70;;
55364;SDS011;41245;45.384;20.390;2024-03-06T13:47:31;22.10;;;14.63;;
55364;SDS011;41245;45.384;20.390;2024-03-06T13:49:57;23.48;;;14.27;;
55364;SDS011;41245;45.384;20.390;2024-03-06T13:52:23;18.85;;;13.10;;
55364;SDS011;41245;45.384;20.390;2024-03-06T13:54:49;19.83;;;11.65;;
55364;SDS011;41245;45.384;20.390;2024-03-06T13:57:15;21.65;;;11.38;;
55364;SDS011;41245;45.384;20.390;2024-03-06T13:59:42;24.50;;;12.60;;
55364;SDS011;41245;45.384;20.390;2024-03-06T14:02:08;18.80;;;11.25;;
55364;SDS011;41245;45.384;20.390;2024-03-06T14:04:34;15.90;;;11.07;;
55364;SDS011;41245;45.384;20.390;2024-03-06T14:07:00;22.00;;;12.95;;
55364;SDS011;41245;45.384;20.390;2024-03-06T14:09:26;21.70;;;13.18;;
55364;SDS011;41245;45.384;20.390;2024-03-06T14:11:53;17.58;;;12.00;;
55364;SDS011;41245;45.384;20.390;2024-03-06T14:14:19;18.33;;;12.65;;
55364;SDS011;41245;45.384;20.390;2024-03-06T14:16:46;22.50;;;12.90;;
55364;SDS011;41245;45.384;20.390;2024-03-06T14:19:12;20.75;;;12.27;;
55364;SDS011;41245;45.384;20.390;2024-03-06T14:21:39;16.92;;;11.82;;
55364;SDS011;41245;45.384;20.390;2024-03-06T14:24:05;23.27;;;13.10;;
55364;SDS011;41245;45.384;20.390;2024-03-06T14:26:31;23.33;;;13.50;;